Home > Products > Valid Products > TAF

000
FTUS45 KGGW 301100 RRA
TAFGGW
TAF
KGGW 301143Z 3012/3112 08008KT 6SM BR OVC006
     FM301600 10008KT P6SM FEW015 SCT060
     FM301900 11016KT P6SM SKC
     FM310700 11019KT P6SM SCT250=



000
FTUS45 KGGW 301100 RRA
TAFOLF
TAF
KOLF 301143Z 3012/3112 VRB04KT P6SM OVC015
     FM301700 07008KT P6SM FEW025 SCT070
     FM302200 10010KT P6SM SCT250=



000
FTUS45 KGGW 301100 RRA
TAFSDY
TAF
KSDY 301143Z 3012/3112 35006KT P6SM OVC015
     FM301900 05008KT P6SM FEW025 SCT040
     FM310200 15012KT P6SM SCT250
      AMD LTD TO CLD VIS AND WIND=



000
FTUS45 KGGW 301100 RRA
TAFGDV
TAF
KGDV 301143Z 3012/3112 32007KT 6SM BR OVC009
     FM301600 06009KT P6SM FEW010 SCT080
     FM302300 11009KT P6SM SCT250
      AMD LTD TO CLD VIS AND WIND=



000
FTUS45 KGGW 300800 AAA
TAFGDV
TAF AMD
KGDV 300845Z 3009/3106 VRB06KT P6SM FEW060 FEW120
     FM301000 32009KT 6SM BR BKN009 BKN025
     FM301800 06009KT P6SM FEW010 SCT080
     FM302300 11009KT P6SM SCT250
      AMD LTD TO CLD VIS AND WIND=



000
FTUS45 KGGW 300500
TAFGDV
TAF
KGDV 300524Z 3006/3106 VRB06KT P6SM FEW060 FEW120
     FM300900 32009KT 6SM BR BKN009 BKN025
     FM301800 06009KT P6SM FEW010 SCT080
     FM302300 11009KT P6SM SCT250
      AMD LTD TO CLD VIS AND WIND=



000
FTUS45 KGGW 300500
TAFOLF
TAF
KOLF 300524Z 3006/3106 VRB05KT P6SM FEW060 SCT100
     FM300700 VRB05KT 6SM BR BKN015 BKN090
     FM301200 05007KT 4SM BR OVC001
     FM301600 07008KT P6SM FEW029 SCT070
     FM301900 10007KT P6SM SCT250=



000
FTUS45 KGGW 300500
TAFGGW
TAF
KGGW 300524Z 3006/3106 VRB06KT P6SM SCT090
     FM300700 03007KT 6SM BR BKN009 BKN090
     FM301200 08008KT 5SM BR OVC005
     FM301600 10008KT P6SM FEW030 SCT060
     FM301900 11021KT P6SM SKC=



000
FTUS45 KGGW 300500
TAFSDY
TAF
KSDY 300524Z 3006/3106 VRB03KT P6SM FEW060 SCT120
     FM300800 33009KT 6SM BR BKN015
     FM301200 35007KT 4SM BR OVC001
     FM302100 VRB06KT P6SM FEW030 SCT040
     FM310200 VRB05KT P6SM SKC
      AMD LTD TO CLD VIS AND WIND=



000
FTUS45 KGGW 300200 AAA
TAFGGW
TAF AMD
KGGW 300213Z 3002/3024 34012KT P6SM FEW090 SCT110
     FM300600 33007KT 6SM BR BKN009 BKN090
     FM301300 VRB06KT P6SM BKN024 BKN100
     FM301800 10008KT P6SM FEW030 SCT060=



000
FTUS45 KGGW 292300
TAFGDV
TAF
KGDV 292320Z 3000/3024 29010KT P6SM FEW060 FEW120
     FM300800 32009KT 6SM BR BKN009 BKN025
      TEMPO 3012/3015 BKN004
     FM301500 36007KT P6SM FEW010 SCT080
      AMD LTD TO CLD VIS AND WIND=



000
FTUS45 KGGW 292300
TAFSDY
TAF
KSDY 292320Z 3000/3024 30011KT P6SM FEW060 SCT120
     FM300600 32009KT P6SM BKN015
     FM301500 36007KT P6SM BKN025
     FM301800 03007KT P6SM FEW030 SCT040
      AMD LTD TO CLD VIS AND WIND=



000
FTUS45 KGGW 292300
TAFOLF
TAF
KOLF 292320Z 3000/3024 30009KT P6SM FEW060 SCT100
     FM300600 VRB06KT 6SM BR BKN015 BKN090
     FM301600 07008KT P6SM FEW029 SCT070=



000
FTUS45 KGGW 292300
TAFGGW
TAF
KGGW 292320Z 3000/3024 31012KT P6SM FEW090 SCT110
     FM300600 33007KT 6SM BR BKN009 BKN090
     FM301300 VRB06KT P6SM BKN024 BKN100
     FM301800 10008KT P6SM FEW030 SCT060=



000
FTUS45 KGGW 291700
TAFGGW
TAF
KGGW 291735Z 2918/3018 VRB04KT P6SM VCSH SCT060 BKN070 OVC090
     FM291930 30017G26KT P6SM BKN090
     FM300000 32010KT P6SM SCT100
     FM300900 VRB06KT P6SM BKN120=



000
FTUS45 KGGW 291700
TAFGDV
TAF
KGDV 291735Z 2918/3018 17008KT P6SM VCSH FEW035 FEW045 BKN060
     FM292000 27015G25KT P6SM BKN060
     FM300100 31012KT P6SM SCT100
     FM300900 VRB05KT P6SM SCT120
      AMD LTD TO CLD VIS AND WIND=



000
FTUS45 KGGW 291700
TAFOLF
TAF
KOLF 291735Z 2918/3018 VRB03KT P6SM VCSH SCT060 BKN070 BKN090
     FM292000 30015G25KT P6SM BKN090
     FM300100 32010KT P6SM SCT100
     FM300900 VRB06KT P6SM BKN100=



000
FTUS45 KGGW 291700
TAFSDY
TAF
KSDY 291735Z 2918/3018 17009KT P6SM VCSH SCT090
     FM292100 30013G23KT P6SM BKN080
     FM300100 32010KT P6SM SCT100
     FM300900 VRB05KT P6SM BKN100
      AMD LTD TO CLD VIS AND WIND=



000
FTUS45 KGGW 291100
TAFGGW
TAF
KGGW 291138Z 2912/3012 10010KT P6SM BKN100
     FM291500 VRB06KT P6SM VCSH OVC070
     FM291800 30020G30KT P6SM BKN050
     FM300000 32010KT P6SM SCT090=



000
FTUS45 KGGW 291100
TAFSDY
TAF
KSDY 291138Z 2912/3012 VRB03KT P6SM SCT120
     FM291600 23008KT P6SM VCSH BKN050 OVC080
     FM292100 30013G23KT P6SM BKN080
     FM300100 32010KT P6SM SCT100
      AMD LTD TO CLD VIS AND WIND=



000
FTUS45 KGGW 291100
TAFGDV
TAF
KGDV 291138Z 2912/3012 VRB06KT P6SM SCT200
     FM291400 22008KT P6SM VCSH BKN050 OVC080
     FM291800 27015G25KT P6SM BKN060
     FM300100 31012KT P6SM SCT150
      AMD LTD TO CLD VIS AND WIND=



000
FTUS45 KGGW 291100
TAFOLF
TAF
KOLF 291138Z 2912/3012 VRB04KT P6SM BKN100
     FM291500 27008KT P6SM VCSH BKN070
     FM292000 30015G25KT P6SM BKN050
     FM300100 32010KT P6SM SCT100=



000
FTUS45 KGGW 290500
TAFGGW
TAF
KGGW 290537Z 2906/3006 12011KT P6SM BKN100
     FM291500 VRB06KT P6SM VCSH OVC070
     FM291800 30020G30KT P6SM BKN050
     FM300000 32010KT P6SM SCT090=



000
FTUS45 KGGW 290500
TAFSDY
TAF
KSDY 290537Z 2906/3006 VRB03KT P6SM SCT120
     FM291600 23008KT P6SM VCSH BKN050 OVC080
     FM292100 30013G23KT P6SM BKN080
      AMD LTD TO CLD VIS AND WIND=



000
FTUS45 KGGW 290500
TAFOLF
TAF
KOLF 290537Z 2906/3006 VRB04KT P6SM BKN100
     FM291500 27008KT P6SM VCSH BKN070
     FM292000 30015G25KT P6SM BKN050
     FM300100 32010KT P6SM SCT100=



000
FTUS45 KGGW 290500
TAFGDV
TAF
KGDV 290537Z 2906/3006 VRB06KT P6SM SCT200
     FM291500 22008KT P6SM VCSH BKN050 OVC080
     FM291800 27015G25KT P6SM BKN060
     FM300200 31013KT P6SM SCT150
      AMD LTD TO CLD VIS AND WIND=



000
FTUS45 KGGW 282300
TAFGDV
TAF
KGDV 282320Z 2900/2924 VRB06KT P6SM SCT200
     FM290700 15004KT P6SM BKN080
     FM291800 26015G25KT P6SM BKN060
      AMD LTD TO CLD VIS AND WIND=



000
FTUS45 KGGW 282300
TAFGGW
TAF
KGGW 282320Z 2900/2924 12008KT P6SM SCT200
     FM290500 12010KT P6SM BKN070
     FM291800 30020G30KT P6SM BKN050=



000
FTUS45 KGGW 282300
TAFOLF
TAF
KOLF 282320Z 2900/2924 VRB03KT P6SM SCT200
     FM290700 09004KT P6SM BKN080
     FM291800 28017G27KT P6SM BKN050=



000
FTUS45 KGGW 282300
TAFSDY
TAF
KSDY 282320Z 2900/2924 VRB03KT P6SM SCT030
     FM290900 VRB03KT P6SM BKN100
     FM291800 26010G20KT P6SM BKN080
      AMD LTD TO CLD VIS AND WIND=



000
FTUS45 KGGW 281900 AAA
TAFSDY
TAF AMD
KSDY 281944Z 2820/2918 25010KT P6SM FEW025 OVC040
     FM282100 25006KT P6SM FEW040
     FM290600 18003KT P6SM BKN100
     FM291200 17006KT P6SM OVC060
      AMD LTD TO CLD VIS AND WIND=



000
FTUS45 KGGW 281900 AAA
TAFGDV
TAF AMD
KGDV 281941Z 2820/2918 32012KT P6SM FEW030
     FM290600 15004KT P6SM BKN100
     FM291200 20006KT P6SM OVC060
      AMD LTD TO CLD VIS AND WIND=



000
FTUS45 KGGW 281700
TAFGGW
TAF
KGGW 281734Z 2818/2918 33010KT P6SM FEW021
     FM290000 19005KT P6SM SCT200
     FM290600 13010KT P6SM BKN070
     FM291200 18010KT P6SM OVC050=



000
FTUS45 KGGW 281700
TAFGDV
TAF
KGDV 281734Z 2818/2918 32012KT P6SM OVC020
     FM282100 28010KT P6SM FEW025
     FM290600 15004KT P6SM BKN100
     FM291200 20006KT P6SM OVC060
      AMD LTD TO CLD VIS AND WIND=



000
FTUS45 KGGW 281700
TAFSDY
TAF
KSDY 281734Z 2818/2918 28012KT P6SM FEW025 OVC040
     FM282100 25006KT P6SM FEW040
     FM290600 18003KT P6SM BKN100
     FM291200 17006KT P6SM OVC060
      AMD LTD TO CLD VIS AND WIND=



000
FTUS45 KGGW 281700
TAFOLF
TAF
KOLF 281734Z 2818/2918 31010KT P6SM BKN024
     FM281900 31009KT P6SM FEW024
     FM290000 19005KT P6SM SCT200
     FM290600 10004KT P6SM BKN100
     FM291200 14010KT P6SM OVC050=



000
FTUS45 KGGW 281100
TAFOLF
TAF
KOLF 281134Z 2812/2912 29010KT P6SM OVC025
     FM281700 VRB06KT P6SM SCT200
     FM290500 08004KT P6SM SCT120=



000
FTUS45 KGGW 281100
TAFGGW
TAF
KGGW 281134Z 2812/2912 30012KT P6SM OVC021
     FM281500 VRB06KT P6SM SCT200
     FM290000 12010KT P6SM SCT120=



000
FTUS45 KGGW 281100
TAFGDV
TAF
KGDV 281134Z 2812/2912 30016KT P6SM OVC025
     FM281600 29012KT P6SM SCT200
     FM290000 VRB03KT P6SM SCT150
      AMD LTD TO CLD VIS AND WIND=



000
FTUS45 KGGW 281100
TAFSDY
TAF
KSDY 281134Z 2812/2912 29015KT P6SM SCT015 OVC070
     FM281300 30012KT P6SM BKN025
     FM281900 30009KT P6SM SCT200
     FM290000 VRB03KT P6SM SCT150
      AMD LTD TO CLD VIS AND WIND=



000
FTUS45 KGGW 280500
TAFOLF
TAF
KOLF 280520Z 2806/2906 29012KT P6SM SCT020 OVC035
     FM282000 VRB06KT P6SM SCT200
     FM290500 08004KT P6SM SCT120=



000
FTUS45 KGGW 280500
TAFGGW
TAF
KGGW 280520Z 2806/2906 30010KT P6SM SCT020 OVC035
     FM281800 VRB06KT P6SM SCT200
     FM290000 12010KT P6SM SCT120=



000
FTUS45 KGGW 280500
TAFGDV
TAF
KGDV 280520Z 2806/2906 29020G30KT P6SM SCT015 OVC035
     FM280900 30018KT P6SM OVC035
     FM281800 29009KT P6SM SCT200
     FM290000 VRB03KT P6SM SCT150
      AMD LTD TO CLD VIS AND WIND=



000
FTUS45 KGGW 280500
TAFSDY
TAF
KSDY 280520Z 2806/2906 30015KT P6SM SCT015 OVC035
     FM282100 30009KT P6SM BKN040
     FM290000 VRB03KT P6SM SCT150
      AMD LTD TO CLD VIS AND WIND=



000
FTUS45 KGGW 272300
TAFSDY
TAF
KSDY 272327Z 2800/2824 28017G27KT 6SM -SHRA OVC020
     FM280500 30015KT P6SM SCT015 OVC020
     FM282000 30009KT P6SM BKN035
      AMD LTD TO CLD VIS AND WIND=



000
FTUS45 KGGW 272300
TAFGDV
TAF
KGDV 272327Z 2800/2824 30020G30KT P6SM VCSH SCT015 OVC020
     FM280300 30018KT P6SM SCT015 OVC020
     FM281700 29009KT P6SM SCT200
      AMD LTD TO CLD VIS AND WIND=



000
FTUS45 KGGW 272300
TAFOLF
TAF
KOLF 272327Z 2800/2824 28015KT P6SM VCSH OVC020
     FM280600 28010KT P6SM OVC020
     FM282000 VRB06KT P6SM SCT200=



000
FTUS45 KGGW 272300
TAFGGW
TAF
KGGW 272327Z 2800/2824 29015KT P6SM VCSH OVC020
     FM280600 30007KT P6SM OVC020
     FM281800 VRB06KT P6SM SCT200=



000
FTUS45 KGGW 272200 AAA
TAFSDY
TAF AMD
KSDY 272201Z 2722/2818 28022G32KT 6SM -SHRA OVC022
     FM280500 30015KT P6SM SCT015 OVC025
      AMD LTD TO CLD VIS AND WIND=



000
FTUS45 KGGW 271700
TAFOLF
TAF
KOLF 271722Z 2718/2818 27017G25KT P6SM -SHRA BKN025
     FM272100 28021G29KT P6SM VCSH OVC025
     FM280200 30014KT P6SM OVC060=



000
FTUS45 KGGW 271700
TAFGGW
TAF
KGGW 271722Z 2718/2818 30022G30KT P6SM -SHRA BKN025
     FM272000 29021G30KT P6SM VCSH BKN035
     FM280100 31016KT P6SM BKN060
     FM280700 30007KT P6SM SCT150=



000
FTUS45 KGGW 271700
TAFSDY
TAF
KSDY 271722Z 2718/2818 27017G23KT P6SM VCSH BKN035
     FM272200 28022G31KT 6SM -SHRA SCT025 OVC035
     FM280500 30015KT P6SM SCT015 OVC025
      AMD LTD TO CLD VIS AND WIND=



000
FTUS45 KGGW 271700
TAFGDV
TAF
KGDV 271722Z 2718/2818 27022G28KT P6SM -SHRA SCT015 OVC025
     FM272100 30020G30KT P6SM -SHRA SCT015 OVC025
     FM280300 30018KT P6SM SCT015 OVC025
     FM281600 30011KT P6SM SCT025
      AMD LTD TO CLD VIS AND WIND=



    US Dept of Commerce
    National Oceanic and Atmospheric Administration
    National Weather Service
    1325 East West Highway
    Silver Spring, MD 20910
    Page Author: NWS Internet Services Team
Disclaimer
Information Quality
Credits
Glossary
Privacy Policy
Freedom of Information Act (FOIA)
About Us
Career Opportunities